sensor_id;sensor_type;location;lat;lon;timestamp;pressure;altitude;pressure_sealevel;temperature;humidity
61786;BME280;47692;53.714;11.372;2023-05-19T00:01:07;102333.97;;;8.16;90.14
61786;BME280;47692;53.714;11.372;2023-05-19T00:03:33;102332.22;;;8.15;90.23
61786;BME280;47692;53.714;11.372;2023-05-19T00:06:01;102326.13;;;8.14;90.14
61786;BME280;47692;53.714;11.372;2023-05-19T00:08:31;102332.22;;;8.15;90.54
61786;BME280;47692;53.714;11.372;2023-05-19T00:10:57;102330.47;;;8.14;90.90
61786;BME280;47692;53.714;11.372;2023-05-19T00:13:22;102326.94;;;8.12;90.58
61786;BME280;47692;53.714;11.372;2023-05-19T00:15:49;102329.47;;;8.05;91.41
61786;BME280;47692;53.714;11.372;2023-05-19T00:18:15;102332.88;;;7.98;91.76
61786;BME280;47692;53.714;11.372;2023-05-19T00:20:41;102326.69;;;7.93;91.93
61786;BME280;47692;53.714;11.372;2023-05-19T00:23:06;102325.91;;;7.97;92.51
61786;BME280;47692;53.714;11.372;2023-05-19T00:25:31;102322.47;;;7.98;92.26
61786;BME280;47692;53.714;11.372;2023-05-19T00:27:57;102328.50;;;7.97;92.39
61786;BME280;47692;53.714;11.372;2023-05-19T00:30:23;102330.25;;;7.98;92.59
61786;BME280;47692;53.714;11.372;2023-05-19T00:32:49;102331.97;;;7.96;92.46
61786;BME280;47692;53.714;11.372;2023-05-19T00:35:15;102331.97;;;7.96;92.70
61786;BME280;47692;53.714;11.372;2023-05-19T00:37:40;102331.81;;;7.87;92.90
61786;BME280;47692;53.714;11.372;2023-05-19T00:40:06;102330.19;;;7.92;92.60
61786;BME280;47692;53.714;11.372;2023-05-19T00:42:32;102329.28;;;7.90;92.40
61786;BME280;47692;53.714;11.372;2023-05-19T00:44:58;102331.00;;;7.89;92.46
61786;BME280;47692;53.714;11.372;2023-05-19T00:47:23;102327.63;;;7.97;92.67
61786;BME280;47692;53.714;11.372;2023-05-19T00:49:49;102331.13;;;7.99;92.26
61786;BME280;47692;53.714;11.372;2023-05-19T00:52:15;102327.50;;;7.87;92.13
61786;BME280;47692;53.714;11.372;2023-05-19T00:54:40;102326.66;;;7.90;92.13
61786;BME280;47692;53.714;11.372;2023-05-19T00:57:06;102331.03;;;7.91;92.54
61786;BME280;47692;53.714;11.372;2023-05-19T00:59:31;102331.00;;;7.89;92.06
61786;BME280;47692;53.714;11.372;2023-05-19T01:01:57;102335.22;;;7.81;91.86
61786;BME280;47692;53.714;11.372;2023-05-19T01:04:22;102332.56;;;7.78;92.00
61786;BME280;47692;53.714;11.372;2023-05-19T01:06:49;102333.44;;;7.79;91.50
61786;BME280;47692;53.714;11.372;2023-05-19T01:09:21;102331.69;;;7.78;91.19
61786;BME280;47692;53.714;11.372;2023-05-19T01:11:47;102337.63;;;7.67;91.54
61786;BME280;47692;53.714;11.372;2023-05-19T01:14:13;102326.41;;;7.73;91.36
61786;BME280;47692;53.714;11.372;2023-05-19T01:16:42;102328.91;;;7.64;91.48
61786;BME280;47692;53.714;11.372;2023-05-19T01:19:31;102325.34;;;7.58;91.34
61786;BME280;47692;53.714;11.372;2023-05-19T01:22:26;102329.66;;;7.58;91.27
61786;BME280;47692;53.714;11.372;2023-05-19T01:30:28;102326.28;;;7.62;90.48
61786;BME280;47692;53.714;11.372;2023-05-19T01:33:01;102329.84;;;7.70;90.42
61786;BME280;47692;53.714;11.372;2023-05-19T01:35:27;102326.22;;;7.59;90.43
61786;BME280;47692;53.714;11.372;2023-05-19T01:37:58;102326.19;;;7.56;90.79
61786;BME280;47692;53.714;11.372;2023-05-19T01:40:25;102327.88;;;7.55;90.46
61786;BME280;47692;53.714;11.372;2023-05-19T01:42:52;102331.41;;;7.59;90.60
61786;BME280;47692;53.714;11.372;2023-05-19T01:45:19;102328.81;;;7.60;90.31
61786;BME280;47692;53.714;11.372;2023-05-19T01:47:46;102329.56;;;7.52;90.85
61786;BME280;47692;53.714;11.372;2023-05-19T01:50:12;102333.72;;;7.42;90.49
61786;BME280;47692;53.714;11.372;2023-05-19T01:52:37;102338.84;;;7.36;90.05
61786;BME280;47692;53.714;11.372;2023-05-19T01:55:03;102331.03;;;7.34;89.84
61786;BME280;47692;53.714;11.372;2023-05-19T01:57:41;102331.03;;;7.34;89.58
61786;BME280;47692;53.714;11.372;2023-05-19T02:02:59;102330.06;;;7.29;89.42
61786;BME280;47692;53.714;11.372;2023-05-19T02:05:32;102327.34;;;7.21;89.21
61786;BME280;47692;53.714;11.372;2023-05-19T02:08:12;102322.91;;;7.16;88.97
61786;BME280;47692;53.714;11.372;2023-05-19T02:10:40;102325.47;;;7.13;89.29
61786;BME280;47692;53.714;11.372;2023-05-19T02:13:09;102328.06;;;7.13;89.50
61786;BME280;47692;53.714;11.372;2023-05-19T02:15:39;102323.72;;;7.11;89.88
61786;BME280;47692;53.714;11.372;2023-05-19T02:18:08;102325.47;;;7.13;90.00
61786;BME280;47692;53.714;11.372;2023-05-19T02:20:35;102320.22;;;7.09;90.48
61786;BME280;47692;53.714;11.372;2023-05-19T02:23:01;102317.53;;;7.05;90.36
61786;BME280;47692;53.714;11.372;2023-05-19T02:25:26;102312.28;;;7.00;90.39
61786;BME280;47692;53.714;11.372;2023-05-19T02:27:51;102316.50;;;6.95;89.92
61786;BME280;47692;53.714;11.372;2023-05-19T02:30:17;102316.41;;;6.89;90.49
61786;BME280;47692;53.714;11.372;2023-05-19T02:32:42;102311.13;;;6.86;90.48
61786;BME280;47692;53.714;11.372;2023-05-19T02:35:11;102317.22;;;6.86;90.50
61786;BME280;47692;53.714;11.372;2023-05-19T02:37:37;102312.81;;;6.84;90.78
61786;BME280;47692;53.714;11.372;2023-05-19T02:40:02;102308.41;;;6.78;90.62
61786;BME280;47692;53.714;11.372;2023-05-19T02:42:28;102311.56;;;6.61;90.08
61786;BME280;47692;53.714;11.372;2023-05-19T02:44:53;102313.03;;;6.49;90.55
61786;BME280;47692;53.714;11.372;2023-05-19T02:47:19;102315.53;;;6.44;91.12
61786;BME280;47692;53.714;11.372;2023-05-19T02:49:44;102320.66;;;6.41;91.49
61786;BME280;47692;53.714;11.372;2023-05-19T02:52:09;102309.47;;;6.42;91.56
61786;BME280;47692;53.714;11.372;2023-05-19T02:54:36;102306.88;;;6.43;91.84
61786;BME280;47692;53.714;11.372;2023-05-19T02:57:01;102312.88;;;6.41;91.16
61786;BME280;47692;53.714;11.372;2023-05-19T02:59:26;102319.81;;;6.40;91.48
61786;BME280;47692;53.714;11.372;2023-05-19T03:01:55;102316.31;;;6.40;92.01
61786;BME280;47692;53.714;11.372;2023-05-19T03:04:20;102315.47;;;6.39;92.28
61786;BME280;47692;53.714;11.372;2023-05-19T03:06:46;102308.56;;;6.41;92.15
61786;BME280;47692;53.714;11.372;2023-05-19T03:09:12;102310.19;;;6.36;92.06
61786;BME280;47692;53.714;11.372;2023-05-19T03:11:38;102310.28;;;6.39;91.99
61786;BME280;47692;53.714;11.372;2023-05-19T03:14:03;102313.75;;;6.41;91.40
61786;BME280;47692;53.714;11.372;2023-05-19T03:16:28;102309.50;;;6.45;91.88
61786;BME280;47692;53.714;11.372;2023-05-19T03:18:54;102315.50;;;6.42;91.81
61786;BME280;47692;53.714;11.372;2023-05-19T03:21:19;102317.91;;;6.32;91.92
61786;BME280;47692;53.714;11.372;2023-05-19T03:23:45;102316.97;;;6.28;91.68
61786;BME280;47692;53.714;11.372;2023-05-19T03:26:11;102310.06;;;6.30;91.65
61786;BME280;47692;53.714;11.372;2023-05-19T03:28:36;102312.63;;;6.28;91.37
61786;BME280;47692;53.714;11.372;2023-05-19T03:31:02;102323.56;;;6.13;91.12
61786;BME280;47692;53.714;11.372;2023-05-19T03:33:27;102317.28;;;6.02;91.27
61786;BME280;47692;53.714;11.372;2023-05-19T03:35:55;102321.47;;;5.97;91.84
61786;BME280;47692;53.714;11.372;2023-05-19T03:38:20;102315.50;;;6.00;92.13
61786;BME280;47692;53.714;11.372;2023-05-19T03:40:46;102327.69;;;6.04;92.63
61786;BME280;47692;53.714;11.372;2023-05-19T03:43:11;102320.94;;;6.12;93.17
61786;BME280;47692;53.714;11.372;2023-05-19T03:45:37;102319.31;;;6.16;93.93
61786;BME280;47692;53.714;11.372;2023-05-19T03:48:03;102315.00;;;6.18;94.07
61786;BME280;47692;53.714;11.372;2023-05-19T03:50:28;102319.31;;;6.17;94.08
61786;BME280;47692;53.714;11.372;2023-05-19T03:52:56;102312.34;;;6.14;93.88
61786;BME280;47692;53.714;11.372;2023-05-19T03:55:21;102317.38;;;6.07;93.99
61786;BME280;47692;53.714;11.372;2023-05-19T03:57:46;102315.53;;;6.01;94.77
61786;BME280;47692;53.714;11.372;2023-05-19T04:00:13;102317.34;;;6.05;95.97
61786;BME280;47692;53.714;11.372;2023-05-19T04:02:38;102318.25;;;6.07;96.58
61786;BME280;47692;53.714;11.372;2023-05-19T04:05:05;102322.66;;;6.11;96.79
61786;BME280;47692;53.714;11.372;2023-05-19T04:07:31;102324.44;;;6.14;96.65
61786;BME280;47692;53.714;11.372;2023-05-19T04:09:56;102322.72;;;6.14;96.96
61786;BME280;47692;53.714;11.372;2023-05-19T04:12:22;102321.91;;;6.16;97.18
61786;BME280;47692;53.714;11.372;2023-05-19T04:14:47;102323.69;;;6.20;97.47
61786;BME280;47692;53.714;11.372;2023-05-19T04:17:13;102327.25;;;6.25;97.58
61786;BME280;47692;53.714;11.372;2023-05-19T04:19:38;102326.47;;;6.29;97.96
61786;BME280;47692;53.714;11.372;2023-05-19T04:22:04;102319.59;;;6.29;98.56
61786;BME280;47692;53.714;11.372;2023-05-19T04:24:30;102325.72;;;6.33;98.77
61786;BME280;47692;53.714;11.372;2023-05-19T04:26:55;102318.91;;;6.38;99.14
61786;BME280;47692;53.714;11.372;2023-05-19T04:29:20;102327.59;;;6.40;99.13
61786;BME280;47692;53.714;11.372;2023-05-19T04:31:48;102329.44;;;6.47;100.00
61786;BME280;47692;53.714;11.372;2023-05-19T04:34:13;102319.06;;;6.47;100.00
61786;BME280;47692;53.714;11.372;2023-05-19T04:36:38;102327.75;;;6.50;100.00
61786;BME280;47692;53.714;11.372;2023-05-19T04:39:04;102331.28;;;6.52;100.00
61786;BME280;47692;53.714;11.372;2023-05-19T04:41:35;102326.09;;;6.52;100.00
61786;BME280;47692;53.714;11.372;2023-05-19T04:44:04;102329.66;;;6.57;100.00
61786;BME280;47692;53.714;11.372;2023-05-19T04:46:31;102326.25;;;6.61;100.00
61786;BME280;47692;53.714;11.372;2023-05-19T04:48:56;102321.19;;;6.67;100.00
61786;BME280;47692;53.714;11.372;2023-05-19T04:51:22;102326.56;;;6.76;100.00
61786;BME280;47692;53.714;11.372;2023-05-19T04:53:55;102329.31;;;6.86;100.00
61786;BME280;47692;53.714;11.372;2023-05-19T04:56:20;102326.94;;;6.98;100.00
61786;BME280;47692;53.714;11.372;2023-05-19T04:58:46;102324.47;;;7.06;100.00
61786;BME280;47692;53.714;11.372;2023-05-19T05:01:12;102317.63;;;7.11;100.00
61786;BME280;47692;53.714;11.372;2023-05-19T05:03:40;102325.50;;;7.16;100.00
61786;BME280;47692;53.714;11.372;2023-05-19T05:06:06;102320.38;;;7.19;100.00
61786;BME280;47692;53.714;11.372;2023-05-19T05:08:31;102325.69;;;7.25;100.00
61786;BME280;47692;53.714;11.372;2023-05-19T05:10:57;102321.53;;;7.35;100.00
61786;BME280;47692;53.714;11.372;2023-05-19T05:13:23;102327.69;;;7.41;100.00
61786;BME280;47692;53.714;11.372;2023-05-19T05:15:48;102329.47;;;7.46;100.00
61786;BME280;47692;53.714;11.372;2023-05-19T05:18:16;102328.69;;;7.50;100.00
61786;BME280;47692;53.714;11.372;2023-05-19T05:20:42;102329.63;;;7.55;100.00
61786;BME280;47692;53.714;11.372;2023-05-19T05:23:08;102328.91;;;7.65;100.00
61786;BME280;47692;53.714;11.372;2023-05-19T05:25:35;102334.09;;;7.65;100.00
61786;BME280;47692;53.714;11.372;2023-05-19T05:28:00;102337.66;;;7.72;100.00
61786;BME280;47692;53.714;11.372;2023-05-19T05:30:29;102340.31;;;7.73;100.00
61786;BME280;47692;53.714;11.372;2023-05-19T05:32:55;102336.84;;;7.74;100.00
61786;BME280;47692;53.714;11.372;2023-05-19T05:35:21;102333.44;;;7.79;100.00
61786;BME280;47692;53.714;11.372;2023-05-19T05:37:48;102334.38;;;7.84;100.00
61786;BME280;47692;53.714;11.372;2023-05-19T05:40:13;102330.00;;;7.80;100.00
61786;BME280;47692;53.714;11.372;2023-05-19T05:42:39;102334.41;;;7.87;100.00
61786;BME280;47692;53.714;11.372;2023-05-19T05:45:04;102331.97;;;7.96;100.00
61786;BME280;47692;53.714;11.372;2023-05-19T05:47:30;102334.63;;;8.01;100.00
61786;BME280;47692;53.714;11.372;2023-05-19T05:49:56;102333.81;;;8.06;100.00
61786;BME280;47692;53.714;11.372;2023-05-19T05:52:24;102340.03;;;8.18;100.00
61786;BME280;47692;53.714;11.372;2023-05-19T05:54:53;102337.44;;;8.16;99.35
61786;BME280;47692;53.714;11.372;2023-05-19T05:57:19;102332.31;;;8.24;99.29
61786;BME280;47692;53.714;11.372;2023-05-19T05:59:44;102336.59;;;8.19;98.03
61786;BME280;47692;53.714;11.372;2023-05-19T06:02:11;102330.53;;;8.18;98.38
61786;BME280;47692;53.714;11.372;2023-05-19T06:04:36;102336.66;;;8.23;99.00
61786;BME280;47692;53.714;11.372;2023-05-19T06:07:01;102339.25;;;8.22;99.08
61786;BME280;47692;53.714;11.372;2023-05-19T06:09:27;102344.53;;;8.28;99.63
61786;BME280;47692;53.714;11.372;2023-05-19T06:11:53;102344.63;;;8.37;100.00
61786;BME280;47692;53.714;11.372;2023-05-19T06:14:19;102348.16;;;8.43;100.00
61786;BME280;47692;53.714;11.372;2023-05-19T06:16:44;102343.00;;;8.46;99.21
61786;BME280;47692;53.714;11.372;2023-05-19T06:19:12;102349.19;;;8.54;99.90
61786;BME280;47692;53.714;11.372;2023-05-19T06:21:37;102338.00;;;8.60;98.68
61786;BME280;47692;53.714;11.372;2023-05-19T06:24:02;102345.94;;;8.70;97.77
61786;BME280;47692;53.714;11.372;2023-05-19T06:26:27;102334.69;;;8.75;96.52
61786;BME280;47692;53.714;11.372;2023-05-19T06:28:53;102346.94;;;8.85;94.83
61786;BME280;47692;53.714;11.372;2023-05-19T06:31:18;102342.63;;;8.90;93.96
61786;BME280;47692;53.714;11.372;2023-05-19T06:33:43;102345.28;;;8.93;93.51
61786;BME280;47692;53.714;11.372;2023-05-19T06:36:08;102341.91;;;9.05;92.98
61786;BME280;47692;53.714;11.372;2023-05-19T06:38:34;102347.19;;;9.11;92.74
61786;BME280;47692;53.714;11.372;2023-05-19T06:41:00;102339.41;;;9.16;92.99
61786;BME280;47692;53.714;11.372;2023-05-19T06:43:25;102350.75;;;9.21;93.71
61786;BME280;47692;53.714;11.372;2023-05-19T06:45:51;102348.19;;;9.24;93.16
61786;BME280;47692;53.714;11.372;2023-05-19T06:48:16;102351.72;;;9.29;93.43
61786;BME280;47692;53.714;11.372;2023-05-19T06:50:41;102348.25;;;9.30;92.30
61786;BME280;47692;53.714;11.372;2023-05-19T06:53:07;102347.41;;;9.33;92.26
61786;BME280;47692;53.714;11.372;2023-05-19T06:55:32;102351.81;;;9.42;93.40
61786;BME280;47692;53.714;11.372;2023-05-19T06:57:57;102353.63;;;9.52;93.08
61786;BME280;47692;53.714;11.372;2023-05-19T07:00:23;102350.25;;;9.62;91.90
61786;BME280;47692;53.714;11.372;2023-05-19T07:02:48;102354.69;;;9.82;89.46
61786;BME280;47692;53.714;11.372;2023-05-19T07:05:13;102354.78;;;9.91;88.29
61786;BME280;47692;53.714;11.372;2023-05-19T07:07:38;102354.78;;;9.94;88.20
61786;BME280;47692;53.714;11.372;2023-05-19T07:10:04;102360.03;;;9.96;86.39
61786;BME280;47692;53.714;11.372;2023-05-19T07:12:30;102355.72;;;10.01;85.89
61786;BME280;47692;53.714;11.372;2023-05-19T07:14:55;102347.88;;;10.06;87.10
61786;BME280;47692;53.714;11.372;2023-05-19T07:17:20;102347.03;;;10.08;87.56
61786;BME280;47692;53.714;11.372;2023-05-19T07:19:46;102349.69;;;10.19;86.85
61786;BME280;47692;53.714;11.372;2023-05-19T07:22:11;102354.13;;;10.31;84.87
61786;BME280;47692;53.714;11.372;2023-05-19T07:24:36;102350.72;;;10.38;84.88
61786;BME280;47692;53.714;11.372;2023-05-19T07:27:02;102353.34;;;10.46;83.64
61786;BME280;47692;53.714;11.372;2023-05-19T07:29:27;102351.63;;;10.53;83.07
61786;BME280;47692;53.714;11.372;2023-05-19T07:31:52;102353.31;;;10.41;84.54
61786;BME280;47692;53.714;11.372;2023-05-19T07:34:23;102355.06;;;10.41;84.15
61786;BME280;47692;53.714;11.372;2023-05-19T07:36:48;102360.31;;;10.47;85.40
61786;BME280;47692;53.714;11.372;2023-05-19T07:39:13;102346.41;;;10.51;85.09
61786;BME280;47692;53.714;11.372;2023-05-19T07:41:39;102346.38;;;10.45;84.13
61786;BME280;47692;53.714;11.372;2023-05-19T07:44:04;102339.47;;;10.62;83.88
61786;BME280;47692;53.714;11.372;2023-05-19T07:46:32;102337.75;;;10.64;83.98
61786;BME280;47692;53.714;11.372;2023-05-19T07:48:57;102340.31;;;10.63;83.00
61786;BME280;47692;53.714;11.372;2023-05-19T07:51:23;102335.13;;;10.66;83.68
61786;BME280;47692;53.714;11.372;2023-05-19T07:53:48;102336.00;;;10.79;83.80
61786;BME280;47692;53.714;11.372;2023-05-19T07:56:14;102334.28;;;10.90;84.94
61786;BME280;47692;53.714;11.372;2023-05-19T07:58:39;102327.34;;;10.98;84.28
61786;BME280;47692;53.714;11.372;2023-05-19T08:01:04;102333.44;;;10.97;83.58
61786;BME280;47692;53.714;11.372;2023-05-19T08:03:29;102329.97;;;11.15;84.82
61786;BME280;47692;53.714;11.372;2023-05-19T08:05:55;102327.38;;;11.20;84.84
61786;BME280;47692;53.714;11.372;2023-05-19T08:08:20;102328.25;;;11.39;84.58
61786;BME280;47692;53.714;11.372;2023-05-19T08:10:46;102334.31;;;11.52;84.45
61786;BME280;47692;53.714;11.372;2023-05-19T08:13:11;102329.09;;;11.68;83.33
61786;BME280;47692;53.714;11.372;2023-05-19T08:15:36;102329.94;;;11.73;80.28
61786;BME280;47692;53.714;11.372;2023-05-19T08:18:02;102329.06;;;11.86;81.44
61786;BME280;47692;53.714;11.372;2023-05-19T08:20:29;102327.28;;;11.91;80.67
61786;BME280;47692;53.714;11.372;2023-05-19T08:22:54;102327.25;;;12.13;82.26
61786;BME280;47692;53.714;11.372;2023-05-19T08:25:20;102330.63;;;12.40;81.79
61786;BME280;47692;53.714;11.372;2023-05-19T08:27:45;102328.84;;;12.51;79.67
61786;BME280;47692;53.714;11.372;2023-05-19T08:30:11;102328.69;;;12.73;78.00
61786;BME280;47692;53.714;11.372;2023-05-19T08:32:36;102322.53;;;12.85;76.74
61786;BME280;47692;53.714;11.372;2023-05-19T08:35:02;102322.47;;;12.91;75.78
61786;BME280;47692;53.714;11.372;2023-05-19T08:37:27;102332.84;;;13.08;74.72
61786;BME280;47692;53.714;11.372;2023-05-19T08:39:53;102318.00;;;13.04;73.92
61786;BME280;47692;53.714;11.372;2023-05-19T08:42:18;102326.69;;;13.12;73.94
61786;BME280;47692;53.714;11.372;2023-05-19T08:44:43;102330.03;;;13.33;73.75
61786;BME280;47692;53.714;11.372;2023-05-19T08:47:09;102328.22;;;13.41;72.88
61786;BME280;47692;53.714;11.372;2023-05-19T08:49:44;102324.72;;;13.42;71.75
61786;BME280;47692;53.714;11.372;2023-05-19T08:54:45;102307.22;;;13.44;69.82
61786;BME280;47692;53.714;11.372;2023-05-19T08:57:14;102309.78;;;13.52;73.15
61786;BME280;47692;53.714;11.372;2023-05-19T08:59:40;102308.66;;;13.74;71.44
61786;BME280;47692;53.714;11.372;2023-05-19T09:02:08;102306.47;;;14.12;69.80
61786;BME280;47692;53.714;11.372;2023-05-19T09:04:35;102304.56;;;14.27;70.04
61786;BME280;47692;53.714;11.372;2023-05-19T09:07:02;102302.56;;;14.44;70.80
61786;BME280;47692;53.714;11.372;2023-05-19T09:09:28;102300.84;;;14.42;69.40
61786;BME280;47692;53.714;11.372;2023-05-19T09:11:54;102302.81;;;14.26;68.20
61786;BME280;47692;53.714;11.372;2023-05-19T09:14:20;102296.59;;;14.33;70.53
61786;BME280;47692;53.714;11.372;2023-05-19T09:16:46;102294.94;;;14.26;68.24
61786;BME280;47692;53.714;11.372;2023-05-19T09:19:14;102293.94;;;14.36;68.78
61786;BME280;47692;53.714;11.372;2023-05-19T09:21:40;102292.94;;;14.43;69.69
61786;BME280;47692;53.714;11.372;2023-05-19T09:24:06;102299.94;;;14.44;68.18
61786;BME280;47692;53.714;11.372;2023-05-19T09:26:40;102293.63;;;14.58;69.61
61786;BME280;47692;53.714;11.372;2023-05-19T09:29:15;102302.06;;;14.81;67.10
61786;BME280;47692;53.714;11.372;2023-05-19T09:31:48;102291.25;;;15.00;66.95
61786;BME280;47692;53.714;11.372;2023-05-19T09:34:18;102294.06;;;14.89;65.49
61786;BME280;47692;53.714;11.372;2023-05-19T09:36:45;102286.38;;;14.75;64.65
61786;BME280;47692;53.714;11.372;2023-05-19T09:39:17;102292.69;;;14.62;66.44
61786;BME280;47692;53.714;11.372;2023-05-19T09:41:43;102295.03;;;14.83;68.88
61786;BME280;47692;53.714;11.372;2023-05-19T09:44:27;102282.63;;;14.92;67.63
61786;BME280;47692;53.714;11.372;2023-05-19T09:46:57;102280.47;;;15.15;65.86
61786;BME280;47692;53.714;11.372;2023-05-19T09:49:24;102287.47;;;15.16;67.00
61786;BME280;47692;53.714;11.372;2023-05-19T09:51:52;102275.06;;;15.25;66.50
61786;BME280;47692;53.714;11.372;2023-05-19T09:54:19;102274.78;;;15.40;66.21
61786;BME280;47692;53.714;11.372;2023-05-19T09:56:44;102274.66;;;15.46;68.73
61786;BME280;47692;53.714;11.372;2023-05-19T09:59:10;102273.75;;;15.50;65.06
61786;BME280;47692;53.714;11.372;2023-05-19T10:01:37;102265.53;;;15.66;66.46
61786;BME280;47692;53.714;11.372;2023-05-19T10:04:05;102257.47;;;15.75;68.27
61786;BME280;47692;53.714;11.372;2023-05-19T10:06:31;102268.81;;;15.79;67.30
61786;BME280;47692;53.714;11.372;2023-05-19T10:08:57;102264.06;;;15.98;64.89
61786;BME280;47692;53.714;11.372;2023-05-19T10:11:24;102267.50;;;16.02;65.76
61786;BME280;47692;53.714;11.372;2023-05-19T10:13:51;102257.56;;;16.14;64.79
61786;BME280;47692;53.714;11.372;2023-05-19T10:16:17;102250.53;;;16.13;65.12
61786;BME280;47692;53.714;11.372;2023-05-19T10:18:43;102251.34;;;16.17;65.03
61786;BME280;47692;53.714;11.372;2023-05-19T10:21:09;102245.22;;;16.17;62.78
61786;BME280;47692;53.714;11.372;2023-05-19T10:23:35;102241.34;;;16.33;62.10
61786;BME280;47692;53.714;11.372;2023-05-19T10:26:02;102238.31;;;16.50;63.86
61786;BME280;47692;53.714;11.372;2023-05-19T10:28:34;102244.44;;;16.51;63.67
61786;BME280;47692;53.714;11.372;2023-05-19T10:31:01;102245.75;;;16.70;63.26
61786;BME280;47692;53.714;11.372;2023-05-19T10:36:31;102236.41;;;16.93;60.45
61786;BME280;47692;53.714;11.372;2023-05-19T10:39:04;102241.31;;;17.08;60.97
61786;BME280;47692;53.714;11.372;2023-05-19T10:44:30;102241.66;;;17.92;58.06
61786;BME280;47692;53.714;11.372;2023-05-19T10:46:59;102236.28;;;18.25;56.12
61786;BME280;47692;53.714;11.372;2023-05-19T10:49:24;102235.00;;;18.38;55.92
61786;BME280;47692;53.714;11.372;2023-05-19T10:51:54;102228.91;;;18.36;54.04
61786;BME280;47692;53.714;11.372;2023-05-19T10:54:40;102222.84;;;18.04;55.53
61786;BME280;47692;53.714;11.372;2023-05-19T10:57:07;102231.97;;;17.94;56.58
61786;BME280;47692;53.714;11.372;2023-05-19T10:59:34;102229.94;;;18.02;56.60
61786;BME280;47692;53.714;11.372;2023-05-19T11:02:06;102222.84;;;17.73;57.64
61786;BME280;47692;53.714;11.372;2023-05-19T11:04:44;102222.53;;;17.52;58.36
61786;BME280;47692;53.714;11.372;2023-05-19T11:07:16;102225.97;;;17.56;57.31
61786;BME280;47692;53.714;11.372;2023-05-19T11:09:42;102211.81;;;17.25;58.97
61786;BME280;47692;53.714;11.372;2023-05-19T11:12:07;102214.69;;;17.18;58.83
61786;BME280;47692;53.714;11.372;2023-05-19T11:14:34;102219.00;;;17.20;59.17
61786;BME280;47692;53.714;11.372;2023-05-19T11:17:00;102218.97;;;16.86;62.53
61786;BME280;47692;53.714;11.372;2023-05-19T11:19:33;102217.72;;;16.66;65.46
61786;BME280;47692;53.714;11.372;2023-05-19T11:22:09;102217.13;;;16.55;67.08
61786;BME280;47692;53.714;11.372;2023-05-19T11:24:44;102208.66;;;16.40;68.01
61786;BME280;47692;53.714;11.372;2023-05-19T11:27:19;102204.63;;;16.25;70.15
61786;BME280;47692;53.714;11.372;2023-05-19T11:29:44;102198.06;;;16.04;71.23
61786;BME280;47692;53.714;11.372;2023-05-19T11:32:12;102196.41;;;16.00;73.00
61786;BME280;47692;53.714;11.372;2023-05-19T11:34:38;102201.88;;;15.91;73.47
61786;BME280;47692;53.714;11.372;2023-05-19T11:37:05;102195.56;;;15.98;72.69
61786;BME280;47692;53.714;11.372;2023-05-19T11:39:31;102209.19;;;16.17;75.61
61786;BME280;47692;53.714;11.372;2023-05-19T11:41:57;102204.66;;;16.24;73.90
61786;BME280;47692;53.714;11.372;2023-05-19T11:44:22;102203.88;;;16.20;73.35
61786;BME280;47692;53.714;11.372;2023-05-19T11:46:47;102195.97;;;16.19;72.89
61786;BME280;47692;53.714;11.372;2023-05-19T11:49:14;102202.59;;;15.99;73.14
61786;BME280;47692;53.714;11.372;2023-05-19T11:51:42;102203.84;;;15.79;72.92
61786;BME280;47692;53.714;11.372;2023-05-19T11:54:09;102190.63;;;15.81;72.48
61786;BME280;47692;53.714;11.372;2023-05-19T11:56:39;102192.09;;;15.96;72.48
61786;BME280;47692;53.714;11.372;2023-05-19T11:59:05;102196.53;;;16.33;72.77
61786;BME280;47692;53.714;11.372;2023-05-19T12:01:30;102194.00;;;16.64;72.88
61786;BME280;47692;53.714;11.372;2023-05-19T12:03:56;102202.00;;;16.61;71.90
61786;BME280;47692;53.714;11.372;2023-05-19T12:06:21;102192.25;;;16.29;71.19
61786;BME280;47692;53.714;11.372;2023-05-19T12:08:50;102187.44;;;16.07;72.04
61786;BME280;47692;53.714;11.372;2023-05-19T12:11:15;102186.19;;;15.85;71.84
61786;BME280;47692;53.714;11.372;2023-05-19T12:13:41;102187.22;;;15.76;73.45
61786;BME280;47692;53.714;11.372;2023-05-19T12:16:07;102193.47;;;15.70;72.88
61786;BME280;47692;53.714;11.372;2023-05-19T12:18:36;102199.19;;;15.94;74.42
61786;BME280;47692;53.714;11.372;2023-05-19T12:21:02;102198.88;;;16.08;73.01
61786;BME280;47692;53.714;11.372;2023-05-19T12:23:27;102192.84;;;16.01;73.47
61786;BME280;47692;53.714;11.372;2023-05-19T12:25:55;102185.34;;;15.84;72.54
61786;BME280;47692;53.714;11.372;2023-05-19T12:28:21;102182.94;;;15.70;73.14
61786;BME280;47692;53.714;11.372;2023-05-19T12:30:48;102191.91;;;15.63;73.38
61786;BME280;47692;53.714;11.372;2023-05-19T12:33:16;102183.28;;;15.55;72.98
61786;BME280;47692;53.714;11.372;2023-05-19T12:35:41;102184.22;;;15.52;73.17
61786;BME280;47692;53.714;11.372;2023-05-19T12:38:07;102185.88;;;15.56;73.11
61786;BME280;47692;53.714;11.372;2023-05-19T12:40:33;102181.41;;;15.60;73.13
61786;BME280;47692;53.714;11.372;2023-05-19T12:43:00;102182.78;;;15.79;73.09
61786;BME280;47692;53.714;11.372;2023-05-19T12:45:25;102182.13;;;16.10;73.58
61786;BME280;47692;53.714;11.372;2023-05-19T12:47:52;102181.31;;;16.44;70.05
61786;BME280;47692;53.714;11.372;2023-05-19T12:50:18;102174.47;;;16.37;69.63
61786;BME280;47692;53.714;11.372;2023-05-19T12:52:48;102181.19;;;16.13;70.16
61786;BME280;47692;53.714;11.372;2023-05-19T12:55:16;102172.94;;;15.89;70.68
61786;BME280;47692;53.714;11.372;2023-05-19T12:57:48;102176.66;;;15.79;71.04
61786;BME280;47692;53.714;11.372;2023-05-19T13:00:17;102172.84;;;15.92;70.73